createdAt,value
2023-05-03T00:01:43.849Z,98695.88
2023-05-03T00:04:11.124Z,98702.94
2023-05-03T00:06:39.712Z,98700.88
2023-05-03T00:09:06.996Z,98711.69
2023-05-03T00:11:34.273Z,98710.66
2023-05-03T00:14:01.465Z,98704.19
2023-05-03T00:16:28.828Z,98702.94
2023-05-03T00:18:56.021Z,98714.59
2023-05-03T00:21:23.130Z,98710.03
2023-05-03T00:23:51.986Z,98711.47
2023-05-03T00:26:19.159Z,98717.75
2023-05-03T00:28:46.672Z,98717.94
2023-05-03T00:31:13.903Z,98715.88
2023-05-03T00:33:41.907Z,98710.66
2023-05-03T00:36:09.197Z,98707.94
2023-05-03T00:38:36.492Z,98714.19
2023-05-03T00:41:05.308Z,98715.47
2023-05-03T00:43:33.254Z,98716.50
2023-05-03T00:46:12.464Z,98718.97
2023-05-03T00:48:42.988Z,98718.78
2023-05-03T00:51:13.203Z,98719.59
2023-05-03T00:53:40.599Z,98725.00
2023-05-03T00:56:09.585Z,98722.09
2023-05-03T00:58:36.887Z,98728.38
2023-05-03T01:01:04.213Z,98727.53
2023-05-03T01:03:31.430Z,98726.09
2023-05-03T01:06:04.006Z,98725.03
2023-05-03T01:08:34.642Z,98728.16
2023-05-03T01:11:02.908Z,98733.13
2023-05-03T01:13:36.663Z,98732.09
2023-05-03T01:16:06.569Z,98737.06
2023-05-03T01:18:38.026Z,98734.59
2023-05-03T01:21:05.793Z,98737.25
2023-05-03T01:23:37.136Z,98735.34
2023-05-03T01:26:16.530Z,98740.16
2023-05-03T01:28:43.710Z,98738.34
2023-05-03T01:31:11.361Z,98740.44
2023-05-03T01:33:43.711Z,98736.88
2023-05-03T01:36:12.267Z,98742.75
2023-05-03T01:38:39.914Z,98739.59
2023-05-03T01:41:09.546Z,98746.50
2023-05-03T01:43:39.134Z,98746.69
2023-05-03T01:46:07.623Z,98749.81
2023-05-03T01:48:34.750Z,98745.44
2023-05-03T01:51:03.161Z,98752.31
2023-05-03T01:53:30.250Z,98756.72
2023-05-03T01:55:57.449Z,98759.41
2023-05-03T01:58:24.579Z,98763.56
2023-05-03T02:00:54.671Z,98750.03
2023-05-03T02:03:21.827Z,98756.91
2023-05-03T02:05:48.922Z,98756.28
2023-05-03T02:08:16.089Z,98761.09
2023-05-03T02:10:44.176Z,98767.13
2023-05-03T02:13:11.602Z,98761.06
2023-05-03T02:15:39.232Z,98767.31
2023-05-03T02:18:08.039Z,98770.03
2023-05-03T02:20:35.271Z,98771.06
2023-05-03T02:23:02.391Z,98770.66
2023-05-03T02:25:29.578Z,98773.38
2023-05-03T02:27:56.622Z,98778.38
2023-05-03T02:30:23.810Z,98774.63
2023-05-03T02:32:51.401Z,98773.16
2023-05-03T02:35:21.234Z,98772.94
2023-05-03T02:37:48.598Z,98781.06
2023-05-03T02:40:16.469Z,98771.47
2023-05-03T02:42:46.620Z,98780.03
2023-05-03T02:45:20.554Z,98787.34
2023-05-03T02:47:48.155Z,98789.41
2023-05-03T02:50:15.971Z,98785.00
2023-05-03T02:52:44.925Z,98786.91
2023-05-03T02:55:12.228Z,98792.31
2023-05-03T02:57:42.388Z,98787.53
2023-05-03T03:00:11.390Z,98787.09
2023-05-03T03:02:38.924Z,98784.00
2023-05-03T03:05:06.625Z,98788.78
2023-05-03T03:07:34.324Z,98790.84
2023-05-03T03:10:03.189Z,98789.81
2023-05-03T03:12:31.767Z,98792.13
2023-05-03T03:15:00.491Z,98787.53
2023-05-03T03:17:30.360Z,98786.88
2023-05-03T03:19:57.693Z,98790.44
2023-05-03T03:22:25.285Z,98789.19
2023-05-03T03:24:52.374Z,98790.84
2023-05-03T03:27:21.548Z,98791.69
2023-05-03T03:29:48.775Z,98798.78
2023-05-03T03:32:16.025Z,98798.78
2023-05-03T03:34:43.900Z,98798.19
2023-05-03T03:37:12.107Z,98801.28
2023-05-03T03:39:41.736Z,98808.78
2023-05-03T03:42:10.874Z,98801.28
2023-05-03T03:44:39.857Z,98797.09
2023-05-03T03:47:08.508Z,98802.75
2023-05-03T03:49:35.687Z,98804.59
2023-05-03T03:52:03.060Z,98799.56
2023-05-03T03:54:30.624Z,98798.44
2023-05-03T03:56:57.705Z,98806.19
2023-05-03T03:59:25.333Z,98802.03
2023-05-03T04:01:55.205Z,98803.94
2023-05-03T04:04:22.464Z,98799.75
2023-05-03T04:06:50.279Z,98805.66
2023-05-03T04:09:17.862Z,98799.19
2023-05-03T04:11:45.767Z,98792.44
2023-05-03T04:14:13.590Z,98805.00
2023-05-03T04:16:42.272Z,98798.53
2023-05-03T04:19:11.014Z,98799.41
2023-05-03T04:21:41.058Z,98803.94
2023-05-03T04:24:08.390Z,98799.06
2023-05-03T04:26:35.532Z,98796.50
2023-05-03T04:29:18.222Z,98799.03
2023-05-03T04:31:45.625Z,98792.16
2023-05-03T04:34:15.504Z,98797.22
2023-05-03T04:36:45.064Z,98788.41
2023-05-03T04:39:12.930Z,98785.78
2023-05-03T04:41:40.505Z,98785.19
2023-05-03T04:44:08.350Z,98787.91
2023-05-03T04:46:35.998Z,98783.97
2023-05-03T04:49:04.397Z,98793.16
2023-05-03T04:51:34.619Z,98782.09
2023-05-03T04:54:02.627Z,98780.56
2023-05-03T04:56:29.786Z,98782.91
2023-05-03T04:59:06.794Z,98778.09
2023-05-03T05:01:34.198Z,98774.22
2023-05-03T05:04:03.807Z,98779.19
2023-05-03T05:06:52.816Z,98780.00
2023-05-03T05:09:26.177Z,98781.47
2023-05-03T05:11:57.171Z,98783.13
2023-05-03T05:14:30.445Z,98785.22
2023-05-03T05:16:58.093Z,98776.00
2023-05-03T05:19:26.333Z,98780.63
2023-05-03T05:21:56.226Z,98778.97
2023-05-03T05:24:27.651Z,98785.19
2023-05-03T05:26:54.836Z,98778.09
2023-05-03T05:29:22.475Z,98771.63
2023-05-03T05:31:49.940Z,98772.88
2023-05-03T05:34:17.333Z,98774.97
2023-05-03T05:36:44.607Z,98776.19
2023-05-03T05:39:14.062Z,98774.78
2023-05-03T05:41:41.786Z,98774.75
2023-05-03T05:44:09.301Z,98773.69
2023-05-03T05:46:36.586Z,98766.38
2023-05-03T05:49:04.450Z,98782.97
2023-05-03T05:51:32.746Z,98773.63
2023-05-03T05:53:59.951Z,98771.56
2023-05-03T05:56:28.628Z,98771.81
2023-05-03T05:58:56.154Z,98768.06
2023-05-03T06:01:24.584Z,98767.03
2023-05-03T06:03:52.138Z,98769.91
2023-05-03T06:06:20.842Z,98761.59
2023-05-03T06:08:48.108Z,98763.06
2023-05-03T06:11:15.276Z,98769.31
2023-05-03T06:13:44.817Z,98770.97
2023-05-03T06:16:15.586Z,98766.38
2023-05-03T06:18:44.061Z,98763.88
2023-05-03T06:21:11.426Z,98765.53
2023-05-03T06:23:38.706Z,98764.50
2023-05-03T06:26:07.129Z,98763.00
2023-05-03T06:28:34.716Z,98768.63
2023-05-03T06:31:04.719Z,98764.06
2023-05-03T06:33:33.729Z,98766.91
2023-05-03T06:36:01.509Z,98760.72
2023-05-03T06:38:29.240Z,98753.97
2023-05-03T06:40:57.285Z,98743.53
2023-05-03T06:43:25.257Z,98759.75
2023-05-03T06:46:04.980Z,98752.78
2023-05-03T06:48:32.813Z,98753.22
2023-05-03T06:51:00.283Z,98746.16
2023-05-03T06:53:27.432Z,98745.38
2023-05-03T06:55:54.593Z,98750.16
2023-05-03T06:58:21.847Z,98747.44
2023-05-03T07:00:52.233Z,98747.69
2023-05-03T07:03:20.943Z,98747.88
2023-05-03T07:05:48.444Z,98752.03
2023-05-03T07:08:15.579Z,98743.91
2023-05-03T07:10:42.629Z,98745.81
2023-05-03T07:13:09.755Z,98744.41
2023-05-03T07:15:36.832Z,98743.78
2023-05-03T07:18:04.337Z,98745.66
2023-05-03T07:20:32.921Z,98743.78
2023-05-03T07:23:00.432Z,98742.50
2023-05-03T07:25:27.842Z,98753.78
2023-05-03T07:27:54.944Z,98742.94
2023-05-03T07:30:22.308Z,98744.59
2023-05-03T07:32:49.744Z,98755.22
2023-05-03T07:35:17.090Z,98744.81
2023-05-03T07:37:45.670Z,98736.69
2023-05-03T07:40:13.507Z,98740.84
2023-05-03T07:42:40.781Z,98740.44
2023-05-03T07:45:08.426Z,98741.72
2023-05-03T07:47:35.731Z,98733.78
2023-05-03T07:50:03.190Z,98734.19
2023-05-03T07:52:30.423Z,98728.56
2023-05-03T07:54:59.029Z,98725.63
2023-05-03T07:57:26.217Z,98732.31
2023-05-03T07:59:53.353Z,98723.75
2023-05-03T08:02:20.660Z,98727.53
2023-05-03T08:04:47.955Z,98717.72
2023-05-03T08:07:15.311Z,98719.16
2023-05-03T08:09:42.493Z,98720.03
2023-05-03T08:12:11.220Z,98710.84
2023-05-03T08:14:38.792Z,98712.72
2023-05-03T08:17:06.611Z,98716.50
2023-05-03T08:19:34.321Z,98716.72
2023-05-03T08:22:01.382Z,98709.59
2023-05-03T08:24:28.632Z,98707.13
2023-05-03T08:26:55.750Z,98705.22
2023-05-03T08:29:25.696Z,98705.63
2023-05-03T08:31:54.737Z,98704.81
2023-05-03T08:34:21.954Z,98708.13
2023-05-03T08:36:49.102Z,98698.78
2023-05-03T08:39:16.442Z,98698.97
2023-05-03T08:41:44.052Z,98706.69
2023-05-03T08:44:12.959Z,98695.84
2023-05-03T08:46:43.704Z,98700.44
2023-05-03T08:49:12.717Z,98696.25
2023-05-03T08:51:40.320Z,98697.50
2023-05-03T08:54:07.661Z,98695.63
2023-05-03T08:56:39.907Z,98701.28
2023-05-03T08:59:07.795Z,98702.47
2023-05-03T09:01:36.020Z,98694.38
2023-05-03T09:04:05.140Z,98687.47
2023-05-03T09:06:32.680Z,98693.75
2023-05-03T09:08:59.960Z,98692.91
2023-05-03T09:11:28.075Z,98679.72
2023-05-03T09:14:07.805Z,98683.50
2023-05-03T09:16:34.954Z,98681.19
2023-05-03T09:19:02.942Z,98683.94
2023-05-03T09:21:31.689Z,98681.25
2023-05-03T09:23:59.112Z,98677.28
2023-05-03T09:26:29.658Z,98688.75
2023-05-03T09:28:58.251Z,98683.94
2023-05-03T09:31:25.441Z,98689.78
2023-05-03T09:33:52.633Z,98676.22
2023-05-03T09:36:19.884Z,98678.50
2023-05-03T09:38:48.714Z,98676.63
2023-05-03T09:41:16.758Z,98682.06
2023-05-03T09:43:50.466Z,98668.31
2023-05-03T09:46:17.630Z,98671.44
2023-05-03T09:48:45.142Z,98665.59
2023-05-03T09:51:13.023Z,98660.59
2023-05-03T09:53:40.487Z,98663.66
2023-05-03T09:56:10.239Z,98662.88
2023-05-03T09:58:38.276Z,98656.19
2023-05-03T10:01:05.717Z,98653.88
2023-05-03T10:03:35.630Z,98644.91
2023-05-03T10:06:04.029Z,98654.31
2023-05-03T10:08:33.545Z,98652.84
2023-05-03T10:11:02.134Z,98649.91
2023-05-03T10:13:31.064Z,98648.88
2023-05-03T10:16:01.576Z,98651.56
2023-05-03T10:18:32.725Z,98653.22
2023-05-03T10:21:02.456Z,98649.69
2023-05-03T10:23:29.730Z,98648.88
2023-05-03T10:26:13.756Z,98651.75
2023-05-03T10:28:43.101Z,98652.19
2023-05-03T10:31:28.832Z,98645.72
2023-05-03T10:33:56.148Z,98633.63
2023-05-03T10:36:23.452Z,98633.44
2023-05-03T10:38:53.057Z,98638.44
2023-05-03T10:41:24.736Z,98636.56
2023-05-03T10:43:53.298Z,98634.28
2023-05-03T10:46:33.724Z,98629.03
2023-05-03T10:49:17.321Z,98625.75
2023-05-03T10:51:44.469Z,98630.47
2023-05-03T10:54:11.557Z,98630.94
2023-05-03T10:56:49.777Z,98631.13
2023-05-03T10:59:18.813Z,98623.84
2023-05-03T11:01:47.048Z,98628.81
2023-05-03T11:04:18.601Z,98629.78
2023-05-03T11:06:47.423Z,98621.81
2023-05-03T11:09:14.563Z,98622.63
2023-05-03T11:11:41.847Z,98621.31
2023-05-03T11:14:10.284Z,98623.03
2023-05-03T11:16:39.278Z,98615.03
2023-05-03T11:19:06.608Z,98609.16
2023-05-03T11:21:33.877Z,98618.34
2023-05-03T11:24:02.075Z,98609.34
2023-05-03T11:26:29.227Z,98610.19
2023-05-03T11:28:56.392Z,98602.31
2023-05-03T11:31:23.743Z,98598.50
2023-05-03T11:33:52.634Z,98605.78
2023-05-03T11:36:20.222Z,98606.19
2023-05-03T11:38:47.444Z,98607.75
2023-05-03T11:41:15.135Z,98604.72
2023-05-03T11:43:42.551Z,98610.38
2023-05-03T11:46:10.521Z,98606.63
2023-05-03T11:48:38.379Z,98617.47
2023-05-03T11:51:10.246Z,98618.25
2023-05-03T11:53:38.005Z,98618.13
2023-05-03T11:56:07.118Z,98628.09
2023-05-03T11:58:34.323Z,98632.47
2023-05-03T12:01:01.787Z,98636.22
2023-05-03T12:03:32.438Z,98627.19
2023-05-03T12:06:02.320Z,98627.59
2023-05-03T12:08:36.359Z,98627.03
2023-05-03T12:11:07.089Z,98626.81
2023-05-03T12:13:37.590Z,98631.19
2023-05-03T12:16:12.756Z,98634.47
2023-05-03T12:18:48.608Z,98627.78
2023-05-03T12:23:50.146Z,98632.56
2023-05-03T12:26:18.994Z,98637.59
2023-05-03T12:28:46.636Z,98639.03
2023-05-03T12:31:16.081Z,98630.22
2023-05-03T12:33:55.747Z,98630.91
2023-05-03T12:36:32.444Z,98620.09
2023-05-03T12:39:02.165Z,98608.78
2023-05-03T12:44:00.601Z,98604.41
2023-05-03T12:46:34.472Z,98603.97
2023-05-03T12:49:06.750Z,98605.78
2023-05-03T12:51:34.936Z,98592.34
2023-05-03T12:54:04.473Z,98588.94
2023-05-03T12:56:33.389Z,98588.75
2023-05-03T12:59:35.515Z,98591.66
2023-05-03T13:02:41.597Z,98588.03
2023-05-03T13:07:13.119Z,98590.38
2023-05-03T13:12:14.130Z,98587.16
2023-05-03T13:14:41.764Z,98583.72
2023-05-03T13:17:09.018Z,98583.00
2023-05-03T13:19:36.553Z,98574.84
2023-05-03T13:22:04.234Z,98577.38
2023-05-03T13:24:31.797Z,98569.06
2023-05-03T13:27:00.443Z,98568.34
2023-05-03T13:29:28.022Z,98569.59
2023-05-03T13:31:55.134Z,98564.41
2023-05-03T13:34:22.291Z,98574.28
2023-05-03T13:36:50.403Z,98576.75
2023-05-03T13:39:17.654Z,98568.28
2023-05-03T13:41:45.871Z,98565.00
2023-05-03T13:44:16.190Z,98577.47
2023-05-03T13:46:43.875Z,98573.28
2023-05-03T13:49:11.315Z,98572.03
2023-05-03T13:51:38.577Z,98580.28
2023-05-03T13:54:06.772Z,98580.53
2023-05-03T13:56:34.997Z,98578.06
2023-05-03T13:59:02.372Z,98574.78
2023-05-03T14:01:31.079Z,98575.00
2023-05-03T14:03:58.300Z,98578.16
2023-05-03T14:06:25.556Z,98575.25
2023-05-03T14:08:52.786Z,98575.66
2023-05-03T14:11:20.138Z,98577.34
2023-05-03T14:13:55.404Z,98575.25
2023-05-03T14:16:39.080Z,98577.41
2023-05-03T14:19:10.082Z,98576.97
2023-05-03T14:21:37.905Z,98578.00
2023-05-03T14:24:05.599Z,98580.50
2023-05-03T14:26:32.814Z,98575.75
2023-05-03T14:28:59.922Z,98581.16
2023-05-03T14:31:27.035Z,98579.97
2023-05-03T14:33:54.267Z,98585.41
2023-05-03T14:36:22.905Z,98589.38
2023-05-03T14:38:50.049Z,98585.41
2023-05-03T14:41:17.416Z,98594.16
2023-05-03T14:43:44.674Z,98594.16
2023-05-03T14:46:12.053Z,98592.50
2023-05-03T14:48:39.330Z,98589.59
2023-05-03T14:51:06.486Z,98598.78
2023-05-03T14:53:35.315Z,98589.19
2023-05-03T14:56:02.573Z,98592.56
2023-05-03T14:58:29.709Z,98588.38
2023-05-03T15:00:56.871Z,98599.19
2023-05-03T15:03:24.188Z,98590.66
2023-05-03T15:05:51.321Z,98590.91
2023-05-03T15:08:19.957Z,98593.59
2023-05-03T15:10:48.571Z,98590.91
2023-05-03T15:13:16.429Z,98595.25
2023-05-03T15:15:44.278Z,98594.22
2023-05-03T15:18:11.696Z,98592.09
2023-05-03T15:20:39.269Z,98594.59
2023-05-03T15:23:06.487Z,98595.44
2023-05-03T15:25:33.588Z,98596.69
2023-05-03T15:28:04.443Z,98605.00
2023-05-03T15:30:32.214Z,98603.78
2023-05-03T15:32:59.472Z,98596.69
2023-05-03T15:35:26.645Z,98602.31
2023-05-03T15:37:53.869Z,98600.47
2023-05-03T15:40:21.944Z,98610.44
2023-05-03T15:42:50.119Z,98621.28
2023-05-03T15:45:19.430Z,98617.13
2023-05-03T15:47:47.171Z,98615.47
2023-05-03T15:50:14.339Z,98619.63
2023-05-03T15:52:41.926Z,98618.38
2023-05-03T15:55:09.716Z,98620.47
2023-05-03T15:57:36.808Z,98628.38
2023-05-03T16:00:04.296Z,98624.63
2023-05-03T16:02:35.601Z,98622.97
2023-05-03T16:05:02.768Z,98634.59
2023-05-03T16:07:29.935Z,98629.63
2023-05-03T16:09:57.099Z,98630.66
2023-05-03T16:12:24.420Z,98634.19
2023-05-03T16:14:51.674Z,98634.41
2023-05-03T16:17:19.236Z,98639.19
2023-05-03T16:19:48.516Z,98641.69
2023-05-03T16:22:15.556Z,98638.97
2023-05-03T16:24:43.206Z,98649.19
2023-05-03T16:27:10.776Z,98641.25
2023-05-03T16:29:38.878Z,98643.34
2023-05-03T16:32:06.622Z,98649.81
2023-05-03T16:34:34.064Z,98649.81
2023-05-03T16:37:03.359Z,98646.25
2023-05-03T16:39:31.258Z,98647.72
2023-05-03T16:41:58.430Z,98648.78
2023-05-03T16:44:25.814Z,98647.94
2023-05-03T16:46:53.506Z,98651.50
2023-05-03T16:49:21.821Z,98645.84
2023-05-03T16:51:49.432Z,98651.25
2023-05-03T16:54:19.355Z,98651.06
2023-05-03T16:56:46.900Z,98650.03
2023-05-03T16:59:14.068Z,98655.44
2023-05-03T17:01:41.596Z,98650.84
2023-05-03T17:04:10.004Z,98649.59
2023-05-03T17:06:38.197Z,98648.13
2023-05-03T17:09:05.852Z,98650.22
2023-05-03T17:11:34.945Z,98660.00
2023-05-03T17:14:02.770Z,98664.38
2023-05-03T17:16:30.597Z,98654.59
2023-05-03T17:18:58.639Z,98656.69
2023-05-03T17:21:26.023Z,98656.69
2023-05-03T17:23:53.683Z,98658.75
2023-05-03T17:26:22.363Z,98662.09
2023-05-03T17:28:51.543Z,98664.56
2023-05-03T17:31:19.310Z,98658.97
2023-05-03T17:33:47.486Z,98656.25
2023-05-03T17:36:15.568Z,98651.69
2023-05-03T17:38:43.635Z,98657.31
2023-05-03T17:41:11.883Z,98657.09
2023-05-03T17:43:39.517Z,98657.50
2023-05-03T17:46:09.489Z,98657.91
2023-05-03T17:48:38.481Z,98647.09
2023-05-03T17:51:06.537Z,98655.44
2023-05-03T17:53:33.601Z,98652.72
2023-05-03T17:56:01.776Z,98658.34
2023-05-03T17:58:29.095Z,98652.50
2023-05-03T18:00:57.224Z,98654.78
2023-05-03T18:03:26.479Z,98655.84
2023-05-03T18:05:53.895Z,98651.28
2023-05-03T18:08:21.011Z,98646.66
2023-05-03T18:10:50.217Z,98645.25
2023-05-03T18:13:18.395Z,98654.59
2023-05-03T18:15:45.731Z,98644.63
2023-05-03T18:18:13.026Z,98648.75
2023-05-03T18:20:41.821Z,98646.91
2023-05-03T18:23:09.057Z,98652.31
2023-05-03T18:25:37.251Z,98651.47
2023-05-03T18:28:04.804Z,98655.44
2023-05-03T18:30:32.536Z,98654.38
2023-05-03T18:33:01.564Z,98656.69
2023-05-03T18:35:29.244Z,98665.81
2023-05-03T18:37:58.255Z,98662.72
2023-05-03T18:40:25.700Z,98657.91
2023-05-03T18:42:53.281Z,98664.56
2023-05-03T18:45:20.459Z,98661.63
2023-05-03T18:47:47.774Z,98662.25
2023-05-03T18:50:15.600Z,98667.88
2023-05-03T18:52:43.834Z,98670.75
2023-05-03T18:55:12.957Z,98667.88
2023-05-03T18:57:40.111Z,98675.75
2023-05-03T19:00:08.003Z,98673.69
2023-05-03T19:02:35.327Z,98668.91
2023-05-03T19:05:02.687Z,98665.56
2023-05-03T19:07:30.323Z,98682.44
2023-05-03T19:09:58.554Z,98682.63
2023-05-03T19:12:27.154Z,98697.22
2023-05-03T19:14:54.621Z,98692.00
2023-05-03T19:17:21.714Z,98692.00
2023-05-03T19:19:48.811Z,98688.28
2023-05-03T19:22:16.478Z,98693.03
2023-05-03T19:24:43.644Z,98698.03
2023-05-03T19:27:10.741Z,98693.66
2023-05-03T19:29:39.369Z,98687.63
2023-05-03T19:32:07.141Z,98690.31
2023-05-03T19:34:35.358Z,98695.53
2023-05-03T19:37:02.640Z,98690.13
2023-05-03T19:39:30.163Z,98693.88
2023-05-03T19:41:57.300Z,98691.38
2023-05-03T19:44:24.826Z,98693.03
2023-05-03T19:46:54.621Z,98703.84
2023-05-03T19:49:21.980Z,98695.28
2023-05-03T19:51:49.620Z,98691.53
2023-05-03T19:54:16.748Z,98689.88
2023-05-03T19:56:43.884Z,98691.75
2023-05-03T19:59:11.029Z,98689.03
2023-05-03T20:01:38.485Z,98687.38
2023-05-03T20:04:07.076Z,98685.47
2023-05-03T20:06:34.268Z,98686.53
2023-05-03T20:09:01.321Z,98684.44
2023-05-03T20:11:28.448Z,98690.03
2023-05-03T20:13:55.599Z,98685.69
2023-05-03T20:16:22.888Z,98681.94
2023-05-03T20:18:50.088Z,98682.34
2023-05-03T20:21:18.747Z,98678.16
2023-05-03T20:23:45.880Z,98675.47
2023-05-03T20:26:13.159Z,98676.72
2023-05-03T20:28:40.333Z,98674.22
2023-05-03T20:31:07.572Z,98674.81
2023-05-03T20:33:35.137Z,98681.47
2023-05-03T20:36:02.358Z,98669.41
2023-05-03T20:38:30.896Z,98678.16
2023-05-03T20:40:57.989Z,98678.16
2023-05-03T20:43:25.106Z,98673.78
2023-05-03T20:45:52.492Z,98676.50
2023-05-03T20:48:19.602Z,98669.41
2023-05-03T20:50:46.880Z,98677.53
2023-05-03T20:53:13.973Z,98669.22
2023-05-03T20:55:42.538Z,98668.38
2023-05-03T20:58:09.617Z,98663.81
2023-05-03T21:00:36.792Z,98665.69
2023-05-03T21:03:04.182Z,98662.34
2023-05-03T21:05:31.303Z,98665.44
2023-05-03T21:07:58.544Z,98666.69
2023-05-03T21:10:25.902Z,98666.47
2023-05-03T21:12:54.514Z,98667.50
2023-05-03T21:15:21.572Z,98657.31
2023-05-03T21:17:48.715Z,98663.16
2023-05-03T21:20:15.927Z,98660.03
2023-05-03T21:22:43.078Z,98668.38
2023-05-03T21:25:10.389Z,98662.97
2023-05-03T21:27:37.467Z,98664.00
2023-05-03T21:30:07.177Z,98666.03
2023-05-03T21:32:34.492Z,98660.63
2023-05-03T21:35:01.522Z,98667.75
2023-05-03T21:37:28.658Z,98668.13
2023-05-03T21:40:02.059Z,98661.25
2023-05-03T21:42:29.866Z,98661.91
2023-05-03T21:44:56.908Z,98676.03
2023-05-03T21:47:25.487Z,98673.53
2023-05-03T21:49:52.920Z,98672.72
2023-05-03T21:52:20.265Z,98675.41
2023-05-03T21:54:47.378Z,98672.91
2023-05-03T21:57:14.451Z,98668.94
2023-05-03T21:59:41.583Z,98680.13
2023-05-03T22:02:08.751Z,98676.41
2023-05-03T22:04:37.360Z,98677.66
2023-05-03T22:07:04.772Z,98681.59
2023-05-03T22:09:31.888Z,98669.31
2023-05-03T22:12:00.603Z,98675.13
2023-05-03T22:14:31.013Z,98676.78
2023-05-03T22:16:58.069Z,98674.28
2023-05-03T22:19:25.177Z,98674.28
2023-05-03T22:21:54.143Z,98677.59
2023-05-03T22:24:21.490Z,98673.47
2023-05-03T22:26:48.587Z,98674.09
2023-05-03T22:29:15.636Z,98675.75
2023-05-03T22:31:42.769Z,98688.41
2023-05-03T22:34:09.985Z,98682.56
2023-05-03T22:36:37.194Z,98682.38
2023-05-03T22:39:05.742Z,98683.41
2023-05-03T22:41:33.813Z,98677.34
2023-05-03T22:44:01.545Z,98676.09
2023-05-03T22:46:28.790Z,98676.06
2023-05-03T22:48:55.897Z,98675.00
2023-05-03T22:51:23.004Z,98678.16
2023-05-03T22:53:50.134Z,98673.72
2023-05-03T22:56:18.670Z,98678.91
2023-05-03T22:58:46.857Z,98666.00
2023-05-03T23:01:14.179Z,98678.47
2023-05-03T23:03:41.640Z,98678.69
2023-05-03T23:06:08.769Z,98675.75
2023-05-03T23:08:35.855Z,98681.16
2023-05-03T23:11:03.264Z,98686.97
2023-05-03T23:13:31.864Z,98679.72
2023-05-03T23:15:58.932Z,98679.72
2023-05-03T23:18:26.175Z,98684.47
2023-05-03T23:20:53.291Z,98688.84
2023-05-03T23:23:20.334Z,98683.38
2023-05-03T23:25:47.604Z,98682.16
2023-05-03T23:28:14.783Z,98687.75
2023-05-03T23:30:43.976Z,98691.13
2023-05-03T23:33:11.853Z,98685.06
2023-05-03T23:35:39.459Z,98698.38
2023-05-03T23:38:06.536Z,98695.22
2023-05-03T23:40:33.623Z,98706.66
2023-05-03T23:43:00.752Z,98696.66
2023-05-03T23:45:27.863Z,98693.97
2023-05-03T23:47:56.461Z,98695.22
2023-05-03T23:50:23.637Z,98697.69
2023-05-03T23:52:50.706Z,98696.25
2023-05-03T23:55:17.900Z,98712.06
2023-05-03T23:57:44.950Z,98704.63
